Bookmark and Share
Track history (hours):
 

Michel Dsr

Last reported at 2014-Apr-16 11:33 UTC. Time now 2014-Apr-19 17:07 UTC.
Position N 47°34' W 003°37'.

Length 80 m; draft 6 m.

Type: Dredging. MMSI: 228344700.

NotesDate/timePositionNaut miles runAvg speedWind from/ knotsBaromVisibWave heightAir tempDewpointWater temp
2014-Apr-16 11:33N 47°34' W 003°37'1313.5
2014-Apr-16 10:33N 47°27' W 003°20'1414.3
2014-Apr-16 09:34N 47°20' W 003°01'1413.7
2014-Apr-16 08:33N 47°12' W 002°45'  
2014-Apr-12 23:11N 46°05' W 001°15'0 0.0
2014-Apr-12 22:33N 46°05' W 001°15'0 0.0
2014-Apr-12 21:30N 46°05' W 001°15'0 0.0
2014-Apr-12 20:34N 46°05' W 001°15'16 6.6
2014-Apr-12 18:12N 46°11' W 001°36'711.1
2014-Apr-12 17:34N 46°17' W 001°43'1111.3
2014-Apr-12 16:33N 46°26' W 001°53'1111.3
2014-Apr-12 15:33N 46°34' W 002°04'1111.5
2014-Apr-12 14:34N 46°43' W 002°15'17 1.5
2014-Apr-12 03:33N 46°30' W 001°59'1211.7
2014-Apr-12 02:33N 46°21' W 001°48'1111.3
2014-Apr-12 01:33N 46°12' W 001°38'1110.8
2014-Apr-12 00:33N 46°07' W 001°24'6 2.0
2014-Apr-11 21:30N 46°08' W 001°15'14 6.6
2014-Apr-11 19:27N 46°05' W 001°34'0 0.2
2014-Apr-11 18:33N 46°05' W 001°35'1 0.6
2014-Apr-11 17:32N 46°05' W 001°34'5 3.7
2014-Apr-11 16:08N 46°05' W 001°26'10 0.3
2014-Apr-10 07:31N 46°09' W 001°14'0 0.2
2014-Apr-10 05:30N 46°09' W 001°14'16 6.6
2014-Apr-10 03:03N 46°12' W 001°37'4 8.2
2014-Apr-10 02:33N 46°15' W 001°41'8 8.2
2014-Apr-10 01:33N 46°21' W 001°49'8 8.4
2014-Apr-10 00:33N 46°28' W 001°57'8 8.3
2014-Apr-09 23:33N 46°34' W 002°04'8 8.4
2014-Apr-09 22:34N 46°41' W 002°11'9 9.2
2014-Apr-09 21:33N 46°48' W 002°21'10 8.9
2014-Apr-09 20:26N 46°56' W 002°28'  
2014-Apr-07 03:16N 47°06' W 002°21'0 0.0
2014-Apr-07 00:28N 47°06' W 002°21'0 0.3
2014-Apr-06 23:15N 47°06' W 002°21'2 1.8
2014-Apr-06 22:10N 47°07' W 002°20'3 0.7
2014-Apr-06 18:20N 47°10' W 002°19'1013.4
2014-Apr-06 17:33N 47°01' W 002°27'2512.3
2014-Apr-06 15:30N 46°39' W 002°09'1213.1
2014-Apr-06 14:33N 46°29' W 001°59'1312.9
2014-Apr-06 13:33N 46°19' W 001°48'1312.7
2014-Apr-06 12:33N 46°08' W 001°38'  

Dump ship's entire track history

sailing weather and tide predictions

Michel Dsr — FLTE — position and weather